createdAt,value
2023-03-03T00:01:19.708Z,43.42
2023-03-03T00:04:22.705Z,42.40
2023-03-03T00:07:25.581Z,37.70
2023-03-03T00:10:29.607Z,37.50
2023-03-03T00:13:33.363Z,51.10
2023-03-03T00:16:40.062Z,49.78
2023-03-03T00:19:45.363Z,51.47
2023-03-03T00:22:48.295Z,54.22
2023-03-03T00:25:54.027Z,51.27
2023-03-03T00:28:58.290Z,52.03
2023-03-03T00:32:28.095Z,65.47
2023-03-03T00:35:39.251Z,63.28
2023-03-03T00:38:43.170Z,70.75
2023-03-03T00:41:46.785Z,71.83
2023-03-03T00:44:59.721Z,85.77
2023-03-03T00:48:22.165Z,107.82
2023-03-03T00:51:30.665Z,123.85
2023-03-03T00:54:34.513Z,146.43
2023-03-03T00:57:38.118Z,112.83
2023-03-03T01:00:45.401Z,137.33
2023-03-03T01:03:51.460Z,144.52
2023-03-03T01:06:54.400Z,166.20
2023-03-03T01:09:58.027Z,193.63
2023-03-03T01:13:03.581Z,190.97
2023-03-03T01:16:07.584Z,181.93
2023-03-03T01:19:10.626Z,164.27
2023-03-03T01:22:13.578Z,140.73
2023-03-03T01:25:16.895Z,130.77
2023-03-03T01:28:20.450Z,124.37
2023-03-03T01:31:24.278Z,120.53
2023-03-03T01:34:27.864Z,120.07
2023-03-03T01:37:31.458Z,117.82
2023-03-03T01:40:35.423Z,100.55
2023-03-03T01:43:48.601Z,91.73
2023-03-03T01:47:10.782Z,111.40
2023-03-03T01:50:21.418Z,105.68
2023-03-03T01:53:37.135Z,78.80
2023-03-03T01:56:40.437Z,90.35
2023-03-03T01:59:50.543Z,85.37
2023-03-03T02:02:54.450Z,82.90
2023-03-03T02:06:01.282Z,77.13
2023-03-03T02:09:41.945Z,68.60
2023-03-03T02:12:45.374Z,78.35
2023-03-03T02:15:49.101Z,59.83
2023-03-03T02:18:52.706Z,53.13
2023-03-03T02:21:56.770Z,54.47
2023-03-03T02:25:04.120Z,51.22
2023-03-03T02:28:08.041Z,55.42
2023-03-03T02:31:16.350Z,47.47
2023-03-03T02:34:20.552Z,66.83
2023-03-03T02:37:24.236Z,76.63
2023-03-03T02:40:32.437Z,55.35
2023-03-03T02:44:00.713Z,47.80
2023-03-03T02:47:04.127Z,44.90
2023-03-03T02:50:08.404Z,52.50
2023-03-03T02:53:11.973Z,61.28
2023-03-03T02:56:15.867Z,63.55
2023-03-03T02:59:20.255Z,62.40
2023-03-03T03:02:25.575Z,62.27
2023-03-03T03:05:29.491Z,56.10
2023-03-03T03:08:33.294Z,50.33
2023-03-03T03:11:37.040Z,51.53
2023-03-03T03:14:40.431Z,43.45
2023-03-03T03:17:44.176Z,38.00
2023-03-03T03:20:48.666Z,39.10
2023-03-03T03:23:51.796Z,32.45
2023-03-03T03:26:55.353Z,22.52
2023-03-03T03:29:59.345Z,26.08
2023-03-03T03:33:04.202Z,19.30
2023-03-03T03:36:07.649Z,25.03
2023-03-03T03:39:10.652Z,24.52
2023-03-03T03:42:17.979Z,21.08
2023-03-03T03:45:22.270Z,17.38
2023-03-03T03:48:26.246Z,17.40
2023-03-03T03:51:31.778Z,19.37
2023-03-03T03:54:35.383Z,23.00
2023-03-03T03:57:38.486Z,22.90
2023-03-03T04:00:43.245Z,19.83
2023-03-03T04:03:46.415Z,15.37
2023-03-03T04:06:53.939Z,19.33
2023-03-03T04:09:57.655Z,13.80
2023-03-03T04:13:00.762Z,10.70
2023-03-03T04:16:04.443Z,15.63
2023-03-03T04:19:07.425Z,15.53
2023-03-03T04:22:14.235Z,22.43
2023-03-03T04:25:18.368Z,11.43
2023-03-03T04:28:22.846Z,11.32
2023-03-03T04:31:27.416Z,12.27
2023-03-03T04:34:31.002Z,11.67
2023-03-03T04:37:34.990Z,11.03
2023-03-03T04:40:42.564Z,10.23
2023-03-03T04:43:47.847Z,12.80
2023-03-03T04:46:50.853Z,7.78
2023-03-03T04:49:54.728Z,11.80
2023-03-03T04:52:57.958Z,7.80
2023-03-03T04:56:02.220Z,8.57
2023-03-03T04:59:05.918Z,8.40
2023-03-03T05:02:09.413Z,12.38
2023-03-03T05:05:14.158Z,11.00
2023-03-03T05:08:17.833Z,10.87
2023-03-03T05:11:20.841Z,10.05
2023-03-03T05:14:23.879Z,8.15
2023-03-03T05:17:27.511Z,7.55
2023-03-03T05:20:30.482Z,11.10
2023-03-03T05:23:33.454Z,8.90
2023-03-03T05:26:36.751Z,7.88
2023-03-03T05:29:40.508Z,8.48
2023-03-03T05:32:44.322Z,6.95
2023-03-03T05:35:54.936Z,10.80
2023-03-03T05:38:57.862Z,9.57
2023-03-03T05:42:00.907Z,7.05
2023-03-03T05:45:04.380Z,9.88
2023-03-03T05:48:07.485Z,8.63
2023-03-03T05:51:10.778Z,8.57
2023-03-03T05:54:13.710Z,10.03
2023-03-03T05:57:16.788Z,8.15
2023-03-03T06:00:20.767Z,8.25
2023-03-03T06:03:24.563Z,10.02
2023-03-03T06:06:28.815Z,13.80
2023-03-03T06:09:32.495Z,8.07
2023-03-03T06:12:35.424Z,8.43
2023-03-03T06:15:38.551Z,9.43
2023-03-03T06:18:41.520Z,7.85
2023-03-03T06:21:44.413Z,7.50
2023-03-03T06:24:47.279Z,9.10
2023-03-03T06:27:50.422Z,11.10
2023-03-03T06:30:57.464Z,7.85
2023-03-03T06:34:01.269Z,8.57
2023-03-03T06:37:04.609Z,10.27
2023-03-03T06:40:08.711Z,8.00
2023-03-03T06:43:12.410Z,8.95
2023-03-03T06:46:16.036Z,11.38
2023-03-03T06:49:19.578Z,11.35
2023-03-03T06:52:26.281Z,9.57
2023-03-03T06:55:29.945Z,8.47
2023-03-03T06:58:36.707Z,7.15
2023-03-03T07:01:40.500Z,11.00
2023-03-03T07:04:43.490Z,9.25
2023-03-03T07:07:46.588Z,9.90
2023-03-03T07:10:51.754Z,11.67
2023-03-03T07:13:56.756Z,9.70
2023-03-03T07:17:06.051Z,10.63
2023-03-03T07:20:41.819Z,12.10
2023-03-03T07:23:46.654Z,38.17
2023-03-03T07:26:49.879Z,103.33
2023-03-03T07:29:56.727Z,36.03
2023-03-03T07:33:00.955Z,47.90
2023-03-03T07:36:07.744Z,22.08
2023-03-03T07:39:27.146Z,13.90
2023-03-03T07:42:40.785Z,8.93
2023-03-03T07:45:54.627Z,8.13
2023-03-03T07:48:59.676Z,11.60
2023-03-03T07:52:18.449Z,10.90
2023-03-03T07:55:34.296Z,17.40
2023-03-03T07:58:42.912Z,18.80
2023-03-03T08:01:48.884Z,16.38
2023-03-03T08:04:53.561Z,13.10
2023-03-03T08:08:19.963Z,17.67
2023-03-03T08:11:23.307Z,12.40
2023-03-03T08:14:30.675Z,18.17
2023-03-03T08:17:40.164Z,12.00
2023-03-03T08:21:03.996Z,10.32
2023-03-03T08:24:07.353Z,11.77
2023-03-03T08:27:10.213Z,9.93
2023-03-03T08:30:13.888Z,9.80
2023-03-03T08:33:17.660Z,8.20
2023-03-03T08:36:20.616Z,10.82
2023-03-03T08:39:24.169Z,11.18
2023-03-03T08:42:27.096Z,13.83
2023-03-03T08:45:30.393Z,14.63
2023-03-03T08:48:34.337Z,14.15
2023-03-03T08:51:37.311Z,16.08
2023-03-03T08:54:40.559Z,16.02
2023-03-03T08:57:45.277Z,23.67
2023-03-03T09:00:51.211Z,18.27
2023-03-03T09:03:54.987Z,22.50
2023-03-03T09:06:58.477Z,19.00
2023-03-03T09:10:02.476Z,25.50
2023-03-03T09:13:13.139Z,18.80
2023-03-03T09:16:17.264Z,29.07
2023-03-03T09:19:36.059Z,32.42
2023-03-03T09:22:41.079Z,26.60
2023-03-03T09:25:46.819Z,27.50
2023-03-03T09:28:50.278Z,28.70
2023-03-03T09:31:56.150Z,25.57
2023-03-03T09:35:36.673Z,31.92
2023-03-03T09:38:47.197Z,30.45
2023-03-03T09:42:10.315Z,34.10
2023-03-03T09:45:29.301Z,32.00
2023-03-03T09:48:32.293Z,31.97
2023-03-03T09:52:02.157Z,39.40
2023-03-03T09:55:25.527Z,40.80
2023-03-03T09:58:48.165Z,42.35
2023-03-03T10:02:16.721Z,26.30
2023-03-03T10:06:05.781Z,31.80
2023-03-03T10:09:12.687Z,33.05
2023-03-03T10:12:36.179Z,34.10
2023-03-03T10:16:01.452Z,30.70
2023-03-03T10:19:38.891Z,35.37
2023-03-03T10:23:16.335Z,45.47
2023-03-03T10:26:43.545Z,49.90
2023-03-03T10:30:10.533Z,42.72
2023-03-03T10:33:34.133Z,34.17
2023-03-03T10:36:53.232Z,31.10
2023-03-03T10:40:14.765Z,48.13
2023-03-03T10:43:43.130Z,55.75
2023-03-03T10:47:05.498Z,42.58
2023-03-03T10:50:15.942Z,36.90
2023-03-03T10:53:30.664Z,40.13
2023-03-03T10:56:53.856Z,32.97
2023-03-03T11:00:16.670Z,32.13
2023-03-03T11:03:28.421Z,25.42
2023-03-03T11:07:01.941Z,44.70
2023-03-03T11:10:14.492Z,35.90
2023-03-03T11:13:55.646Z,30.07
2023-03-03T11:17:22.673Z,32.58
2023-03-03T11:20:28.846Z,35.33
2023-03-03T11:23:49.345Z,33.33
2023-03-03T11:27:37.128Z,29.33
2023-03-03T11:31:07.560Z,27.33
2023-03-03T11:34:29.181Z,29.02
2023-03-03T11:37:41.367Z,24.38
2023-03-03T11:41:00.413Z,34.00
2023-03-03T11:44:13.497Z,29.93
2023-03-03T11:47:32.655Z,32.67
2023-03-03T11:50:57.270Z,31.55
2023-03-03T11:54:19.527Z,32.63
2023-03-03T11:57:39.817Z,30.77
2023-03-03T12:00:52.960Z,41.17
2023-03-03T12:04:20.590Z,50.97
2023-03-03T12:07:32.656Z,74.82
2023-03-03T12:10:52.730Z,74.30
2023-03-03T12:14:14.734Z,155.50
2023-03-03T12:17:29.672Z,149.93
2023-03-03T12:20:46.958Z,121.07
2023-03-03T12:24:00.191Z,117.05
2023-03-03T12:27:15.574Z,81.35
2023-03-03T12:30:37.806Z,38.67
2023-03-03T12:33:57.438Z,33.70
2023-03-03T12:37:07.710Z,28.20
2023-03-03T12:40:24.910Z,28.05
2023-03-03T12:43:53.514Z,31.70
2023-03-03T12:47:07.139Z,33.35
2023-03-03T12:50:14.669Z,22.77
2023-03-03T12:53:21.506Z,24.90
2023-03-03T12:56:46.590Z,23.48
2023-03-03T13:00:26.152Z,18.35
2023-03-03T13:03:55.721Z,20.00
2023-03-03T13:07:06.825Z,24.30
2023-03-03T13:10:22.845Z,28.13
2023-03-03T13:13:46.396Z,37.85
2023-03-03T13:16:55.158Z,53.67
2023-03-03T13:20:01.984Z,69.05
2023-03-03T13:23:10.228Z,72.30
2023-03-03T13:26:34.573Z,89.13
2023-03-03T13:29:57.845Z,74.28
2023-03-03T13:33:13.965Z,53.47
2023-03-03T13:36:19.442Z,118.38
2023-03-03T13:39:27.612Z,72.30
2023-03-03T13:42:38.963Z,54.20
2023-03-03T13:45:55.852Z,48.80
2023-03-03T13:49:22.409Z,47.67
2023-03-03T13:52:29.819Z,57.42
2023-03-03T13:55:42.413Z,65.13
2023-03-03T13:59:11.639Z,129.13
2023-03-03T14:02:33.743Z,95.25
2023-03-03T14:05:45.116Z,114.78
2023-03-03T14:09:17.952Z,141.25
2023-03-03T14:12:33.675Z,147.83
2023-03-03T14:15:56.702Z,86.53
2023-03-03T14:19:23.294Z,96.82
2023-03-03T14:22:45.601Z,56.90
2023-03-03T14:26:10.543Z,66.78
2023-03-03T14:29:28.688Z,60.60
2023-03-03T14:32:44.745Z,46.77
2023-03-03T14:36:01.047Z,41.92
2023-03-03T14:39:26.822Z,66.80
2023-03-03T14:42:37.643Z,84.55
2023-03-03T14:45:42.768Z,78.13
2023-03-03T14:48:55.128Z,97.27
2023-03-03T14:52:10.260Z,112.30
2023-03-03T14:55:38.654Z,137.15
2023-03-03T14:58:43.296Z,103.65
2023-03-03T15:01:57.652Z,82.73
2023-03-03T15:05:28.649Z,61.87
2023-03-03T15:08:36.428Z,59.78
2023-03-03T15:11:39.518Z,107.30
2023-03-03T15:14:47.372Z,106.95
2023-03-03T15:18:13.926Z,111.13
2023-03-03T15:21:22.507Z,134.63
2023-03-03T15:24:45.834Z,113.50
2023-03-03T15:28:24.567Z,146.98
2023-03-03T15:31:55.470Z,156.10
2023-03-03T15:35:15.924Z,171.53
2023-03-03T15:38:35.652Z,156.10
2023-03-03T15:42:09.257Z,153.18
2023-03-03T15:45:30.784Z,142.43
2023-03-03T15:48:39.914Z,148.88
2023-03-03T15:51:50.730Z,165.60
2023-03-03T15:55:30.876Z,156.40
2023-03-03T15:59:23.026Z,191.38
2023-03-03T16:02:52.678Z,160.02
2023-03-03T16:06:12.715Z,173.77
2023-03-03T16:09:43.367Z,170.80
2023-03-03T16:13:10.204Z,164.47
2023-03-03T16:16:35.367Z,145.55
2023-03-03T16:20:29.384Z,161.85
2023-03-03T16:23:41.245Z,161.32
2023-03-03T16:27:25.448Z,190.80
2023-03-03T16:30:38.703Z,172.90
2023-03-03T16:34:01.826Z,174.77
2023-03-03T16:37:24.728Z,151.88
2023-03-03T16:40:37.545Z,149.90
2023-03-03T16:44:05.353Z,110.13
2023-03-03T16:47:32.732Z,100.50
2023-03-03T16:50:47.866Z,100.70
2023-03-03T16:54:07.132Z,102.88
2023-03-03T16:57:54.438Z,96.78
2023-03-03T17:01:28.521Z,91.00
2023-03-03T17:04:47.093Z,101.43
2023-03-03T17:08:08.874Z,116.40
2023-03-03T17:11:15.828Z,108.88
2023-03-03T17:14:32.819Z,95.00
2023-03-03T17:17:52.830Z,93.70
2023-03-03T17:21:01.926Z,88.40
2023-03-03T17:24:32.348Z,88.43
2023-03-03T17:28:14.558Z,86.50
2023-03-03T17:31:53.391Z,80.50
2023-03-03T17:35:07.917Z,77.97
2023-03-03T17:38:27.511Z,81.28
2023-03-03T17:41:51.192Z,82.95
2023-03-03T17:45:21.035Z,74.15
2023-03-03T17:49:00.799Z,89.72
2023-03-03T17:52:38.706Z,83.87
2023-03-03T17:56:16.418Z,86.13
2023-03-03T17:59:38.393Z,75.72
2023-03-03T18:02:42.345Z,75.13
2023-03-03T18:05:52.960Z,73.85
2023-03-03T18:09:36.756Z,73.57
2023-03-03T18:13:00.210Z,55.97
2023-03-03T18:16:12.015Z,50.33
2023-03-03T18:19:31.598Z,44.83
2023-03-03T18:22:52.531Z,40.78
2023-03-03T18:25:58.484Z,38.53
2023-03-03T18:29:18.790Z,38.10
2023-03-03T18:32:24.934Z,31.67
2023-03-03T18:35:35.772Z,29.77
2023-03-03T18:38:39.948Z,42.40
2023-03-03T18:42:05.451Z,34.17
2023-03-03T18:45:46.498Z,34.05
2023-03-03T18:49:05.942Z,36.75
2023-03-03T18:52:27.405Z,33.60
2023-03-03T18:56:00.438Z,33.65
2023-03-03T18:59:03.568Z,29.87
2023-03-03T19:02:19.125Z,32.50
2023-03-03T19:05:47.910Z,45.22
2023-03-03T19:08:58.495Z,63.10
2023-03-03T19:12:21.763Z,41.88
2023-03-03T19:15:36.505Z,46.57
2023-03-03T19:18:59.691Z,43.60
2023-03-03T19:22:58.133Z,49.90
2023-03-03T19:26:25.688Z,45.90
2023-03-03T19:29:29.734Z,49.45
2023-03-03T19:33:11.003Z,54.07
2023-03-03T19:36:48.245Z,42.50
2023-03-03T19:39:54.207Z,38.72
2023-03-03T19:43:24.236Z,38.80
2023-03-03T19:47:04.281Z,34.17
2023-03-03T19:50:32.521Z,40.43
2023-03-03T19:54:17.557Z,43.33
2023-03-03T19:57:42.767Z,44.72
2023-03-03T20:00:55.661Z,40.00
2023-03-03T20:04:11.181Z,46.65
2023-03-03T20:07:23.164Z,28.50
2023-03-03T20:10:53.353Z,41.55
2023-03-03T20:14:11.867Z,45.50
2023-03-03T20:17:35.159Z,46.03
2023-03-03T20:20:40.565Z,38.08
2023-03-03T20:24:36.570Z,45.63
2023-03-03T20:27:48.152Z,36.20
2023-03-03T20:31:18.032Z,39.95
2023-03-03T20:34:24.063Z,40.65
2023-03-03T20:37:48.011Z,40.25
2023-03-03T20:41:12.298Z,34.67
2023-03-03T20:44:44.244Z,30.20
2023-03-03T20:48:12.228Z,32.95
2023-03-03T20:51:29.704Z,35.95
2023-03-03T20:54:57.125Z,35.90
2023-03-03T20:58:18.935Z,34.70
2023-03-03T21:01:50.983Z,31.15
2023-03-03T21:05:16.070Z,37.42
2023-03-03T21:08:19.170Z,25.35
2023-03-03T21:11:31.640Z,22.27
2023-03-03T21:14:37.026Z,17.23
2023-03-03T21:17:40.391Z,24.83
2023-03-03T21:20:44.579Z,26.92
2023-03-03T21:23:47.563Z,31.35
2023-03-03T21:26:59.832Z,30.92
2023-03-03T21:30:13.714Z,28.77
2023-03-03T21:33:55.904Z,33.72
2023-03-03T21:37:00.909Z,27.98
2023-03-03T21:40:24.040Z,23.05
2023-03-03T21:43:53.517Z,27.67
2023-03-03T21:46:58.650Z,31.13
2023-03-03T21:50:02.171Z,36.03
2023-03-03T21:53:05.838Z,41.35
2023-03-03T21:56:09.419Z,33.78
2023-03-03T21:59:13.077Z,35.60
2023-03-03T22:02:16.803Z,24.23
2023-03-03T22:05:21.143Z,26.27
2023-03-03T22:08:25.089Z,26.98
2023-03-03T22:11:29.160Z,23.35
2023-03-03T22:14:32.888Z,17.98
2023-03-03T22:17:36.657Z,19.33
2023-03-03T22:20:40.729Z,23.00
2023-03-03T22:23:44.541Z,19.77
2023-03-03T22:26:48.669Z,18.80
2023-03-03T22:29:51.942Z,31.83
2023-03-03T22:32:55.801Z,29.67
2023-03-03T22:36:00.360Z,21.83
2023-03-03T22:39:04.084Z,32.72
2023-03-03T22:42:08.221Z,27.98
2023-03-03T22:45:12.242Z,28.13
2023-03-03T22:48:16.390Z,22.50
2023-03-03T22:51:22.703Z,29.17
2023-03-03T22:54:27.015Z,28.88
2023-03-03T22:57:31.623Z,26.40
2023-03-03T23:00:36.152Z,30.52
2023-03-03T23:03:40.008Z,21.30
2023-03-03T23:06:45.714Z,22.92
2023-03-03T23:09:48.726Z,21.65
2023-03-03T23:12:52.729Z,19.65
2023-03-03T23:16:00.521Z,22.60
2023-03-03T23:19:04.749Z,22.73
2023-03-03T23:22:08.515Z,21.95
2023-03-03T23:25:14.605Z,24.35
2023-03-03T23:28:17.603Z,27.25
2023-03-03T23:31:21.841Z,38.53
2023-03-03T23:34:25.653Z,38.33
2023-03-03T23:37:29.616Z,35.63
2023-03-03T23:40:33.278Z,34.10
2023-03-03T23:43:37.213Z,39.95
2023-03-03T23:46:41.582Z,68.40
2023-03-03T23:49:45.637Z,91.73
2023-03-03T23:52:49.607Z,84.90
2023-03-03T23:55:53.758Z,85.70
2023-03-03T23:58:57.539Z,76.78
